Airfield :
LOGIN :

Register | Disclaimer

   EN    FR    IT 

 










Legend :    VFR   Marginal VFR   IFR   Intensive IFR   Very Intensive IFR
Visi :
Ceiling :
>= 8 km
>= 3000ft
5 to 8 km
1000 to 3000 ft
1500m to 5 km
500 to 1000 ft
800 to 1500m
200 to 500 ft
< 800m
< 200 ft
Symbols :   Thunderstorms  Fog  Heavy snow  Heavy precipitations  Wind > 20 kt
SIGMETs :     Misc.  Thunderstorms  Icing  Turbulence  Mountain Waves  Volcanic Ashes







- Airport Elevation : 27 ft
- IATA code : PMI


LEPA - Palma de Mallorca

CURRENT METAR :
  • 261230Z 15006KT 100V210 9999 FEW034 21/05 Q1018 NOSIG

EXPIRED METARs :
  • 261200Z 15006KT 100V200 9999 FEW034 20/04 Q1018 NOSIG
  • 261130Z 12005KT 040V190 9999 FEW034 20/06 Q1019 NOSIG
  • 261100Z 12004KT 9999 FEW034 20/06 Q1019 NOSIG
  • 261030Z 13005KT 080V190 9999 FEW030 19/06 Q1019 NOSIG
  • 261000Z 12003KT 070V210 9999 FEW030 18/08 Q1020 NOSIG

TAF TAF LEPA
Valid from the 26 at 12:00 until the 27 at 12:00 UTC


261100Z 2612/2712 11008KT 9999 FEW040 TX20/2612Z TN08/2706Z
BECMG 2618/2620 05008KT
No reported NOTAMs for that airfield.



MET'MAP, your aeronautical weather chart ! - Copyright ORBIFLY December 2007 - Disclaimer

ORBIFLY MET'MAP TEAM :

Programming & Development : Alexandra Zaïnal
Concept & Development : Baudouin d'Aumeries
Co-Development & Prog : Marc-Olivier Méhu
Technical & hardware support : Manuel Goepfert

Contact : metmap@orbifly.com




SOURCES & CREDITS :

   NOAA